Startpagina
METAR-TAF:

METAR-TAF

Vliegvelden :

Murtala Muhammed International Airport

Lagos, Nigeria

breedte: 06-35N, lengte: 003-20E, hoogte: 40 m

Actueel weer

Dit bericht is 43 minuten geleden gemaakt, om 07:00 UTC
Weinig wind
Temperatuur 23°C
Vochtigheid 94%
Druk 1013 hPa
Zicht: 1400 m
Heiigheid

METAR: DNMM 290700Z 00000KT 1400 R18R/1000N R18L/1000N HZ NSC 23/22 Q1013 NOSIG

Tijdstip: 08:43 (07:43 UTC)

Verwachting

Dit bericht is 2 uur en het 43 minuten geleden gemaakt, om 05:00 UTC
Verwachting geldig van 29 om 06 UTC tot 30 om 12 UTC
Wind 4 kt uit het noorden
Zicht: 2000 m
Heiigheid
Tijdelijke
van 29 om 06 UTC tot 29 om 08 UTC
Zicht: 1400 m
Wijzigt naar
van 29 om 09 UTC tot 29 om 11 UTC
Wind 10 kt uit het noordnoordoosten
Zicht: 3000 m

TAF: DNMM 290500Z 2906/3012 35004KT 2000 HZ NSC TEMPO 2906/2908 1400 BECMG 2909/2911 03010KT 3000

Waarnemingen en weersverwachtingen van meer dan 4000 vliegvelden (METAR en TAF).

De beschikbare stations zijn de gele en rode punten op de kaart.

Ga met uw muis naar het station om de naam te zien.

Klik dan om waarnemingen en weersverwachtingen te zien.

kaart wijzigen: klik op de groene knoppen met een zwart kruis om in te zoomen, op de groene knop met een streepje om uit te zoomen of op de groene pijlen voor aangrenzende kaarten.


METAR-TAF: